Time;durP1;ratioP1;P1;durP2;ratioP2;P2;SDS_P1;SDS_P2;PMS_P1;PMS_P2;Temp;Humidity;BMP_temperature;BMP_pressure;BME280_temperature;BME280_humidity;BME280_pressure;Samples;Min_cycle;Max_cycle;Signal;HPM_P1;HPM_P2
2021/10/26 00:01:48;;;;;;;19.67;15.13;;;12.90;99.90;;;;;;5059267;28;20215;-76
2021/10/26 00:04:14;;;;;;;17.60;14.43;;;13.00;99.90;;;;;;5092177;28;20468;-76
2021/10/26 00:06:40;;;;;;;17.58;15.70;;;13.00;99.90;;;;;;5064925;28;20405;-76
2021/10/26 00:09:06;;;;;;;18.02;15.80;;;13.00;99.90;;;;;;5056650;28;20035;-76
2021/10/26 00:11:32;;;;;;;16.17;14.52;;;13.00;99.90;;;;;;5075721;28;20029;-76
2021/10/26 00:13:58;;;;;;;16.58;14.48;;;13.00;99.90;;;;;;5074811;28;20478;-76
2021/10/26 00:16:24;;;;;;;17.73;15.57;;;12.90;99.90;;;;;;5075017;28;20028;-76
2021/10/26 00:18:50;;;;;;;16.40;14.40;;;13.00;99.90;;;;;;5075467;28;20100;-77
2021/10/26 00:21:15;;;;;;;17.10;15.27;;;13.00;99.90;;;;;;5056389;28;20025;-76
2021/10/26 00:23:41;;;;;;;22.58;16.40;;;13.00;99.90;;;;;;5073866;28;20481;-75
2021/10/26 00:26:07;;;;;;;19.35;16.27;;;13.00;99.90;;;;;;5056369;28;20482;-75
2021/10/26 00:28:34;;;;;;;17.30;15.55;;;13.00;99.90;;;;;;5074369;28;20049;-76
2021/10/26 00:31:00;;;;;;;16.23;13.48;;;13.00;99.90;;;;;;5056945;28;20369;-74
2021/10/26 00:33:27;;;;;;;17.48;15.48;;;13.00;99.90;;;;;;5057210;28;20025;-74
2021/10/26 00:35:53;;;;;;;16.63;14.30;;;13.00;99.90;;;;;;5056466;28;20086;-74
2021/10/26 00:38:18;;;;;;;17.55;14.60;;;13.00;99.90;;;;;;5074998;28;20052;-75
2021/10/26 00:40:44;;;;;;;16.08;13.88;;;13.00;99.90;;;;;;5075000;28;20029;-74
2021/10/26 00:43:10;;;;;;;14.93;13.05;;;13.00;99.90;;;;;;5074121;28;20016;-74
2021/10/26 00:45:36;;;;;;;16.23;14.52;;;13.00;99.90;;;;;;5057040;28;20039;-75
2021/10/26 00:48:02;;;;;;;17.13;14.63;;;13.00;99.90;;;;;;5056466;28;20396;-74
2021/10/26 00:50:27;;;;;;;19.42;16.10;;;13.00;99.90;;;;;;5074233;28;20021;-75
2021/10/26 00:52:53;;;;;;;17.73;13.88;;;13.00;99.90;;;;;;5057086;28;20028;-77
2021/10/26 00:55:19;;;;;;;17.83;13.73;;;13.00;99.90;;;;;;5061941;28;20020;-76
2021/10/26 00:57:46;;;;;;;18.92;16.88;;;13.00;99.90;;;;;;5076164;28;20077;-76
2021/10/26 01:00:13;;;;;;;17.60;15.75;;;13.00;99.90;;;;;;5074388;28;20035;-77
2021/10/26 01:02:42;;;;;;;16.50;14.70;;;13.00;99.90;;;;;;5073988;28;20463;-76
2021/10/26 01:05:09;;;;;;;17.13;15.32;;;13.00;99.90;;;;;;5074361;28;20118;-76
2021/10/26 01:07:34;;;;;;;16.30;14.35;;;13.00;99.90;;;;;;5074634;28;20434;-76
2021/10/26 01:10:00;;;;;;;15.90;14.20;;;13.00;99.90;;;;;;5073605;28;20020;-76
2021/10/26 01:12:29;;;;;;;20.25;16.67;;;13.10;99.90;;;;;;5074390;28;20141;-76
2021/10/26 01:14:56;;;;;;;16.92;15.15;;;13.00;99.90;;;;;;5074445;28;20524;-79
2021/10/26 01:17:22;;;;;;;17.45;15.65;;;13.00;99.90;;;;;;5074102;28;20017;-78
2021/10/26 01:19:50;;;;;;;17.80;16.00;;;13.00;99.90;;;;;;5075634;28;20070;-77
2021/10/26 01:22:18;;;;;;;17.98;16.08;;;13.00;99.90;;;;;;5074037;28;20032;-78
2021/10/26 01:24:45;;;;;;;18.70;16.42;;;13.10;99.90;;;;;;5055508;28;20403;-77
2021/10/26 01:27:10;;;;;;;18.92;15.43;;;13.00;99.90;;;;;;5055990;28;20036;-78
2021/10/26 01:29:37;;;;;;;19.63;17.10;;;13.00;99.90;;;;;;5056007;28;20037;-78
2021/10/26 01:32:05;;;;;;;18.05;16.23;;;13.10;99.90;;;;;;5073248;28;20021;-78
2021/10/26 01:34:31;;;;;;;20.60;16.13;;;13.00;99.90;;;;;;5074052;28;20021;-77
2021/10/26 01:37:01;;;;;;;17.55;15.52;;;13.00;99.90;;;;;;5055811;28;20543;-76
2021/10/26 01:39:27;;;;;;;18.20;16.30;;;13.00;99.90;;;;;;5073267;28;20024;-74
2021/10/26 01:41:53;;;;;;;19.77;17.52;;;13.00;99.90;;;;;;5073950;28;20481;-74
2021/10/26 01:44:19;;;;;;;23.13;20.63;;;13.00;99.90;;;;;;5055548;28;20023;-73
2021/10/26 01:46:45;;;;;;;22.90;18.33;;;13.00;99.90;;;;;;5073153;28;20028;-74
2021/10/26 01:49:10;;;;;;;20.98;17.67;;;13.00;99.90;;;;;;5073315;28;20024;-75
2021/10/26 01:51:36;;;;;;;22.55;19.92;;;13.00;99.90;;;;;;5081646;28;20043;-77
2021/10/26 01:54:02;;;;;;;22.63;19.88;;;13.00;99.90;;;;;;5078701;28;20025;-75
2021/10/26 01:56:28;;;;;;;23.98;19.25;;;13.00;99.90;;;;;;5074509;28;20031;-74
2021/10/26 01:58:53;;;;;;;19.98;17.95;;;13.00;99.90;;;;;;5075048;28;20020;-75
2021/10/26 02:01:19;;;;;;;23.10;19.13;;;13.00;99.90;;;;;;5083811;28;20033;-74
2021/10/26 02:03:44;;;;;;;21.30;19.08;;;13.00;99.90;;;;;;5089589;28;20031;-75
2021/10/26 02:06:10;;;;;;;23.35;20.88;;;13.00;99.90;;;;;;5092634;28;20032;-74
2021/10/26 02:08:36;;;;;;;23.17;20.73;;;13.00;99.90;;;;;;5093577;28;20039;-74
2021/10/26 02:11:01;;;;;;;24.02;19.40;;;13.00;99.90;;;;;;5092120;28;20024;-74
2021/10/26 02:13:27;;;;;;;25.92;21.40;;;13.00;99.90;;;;;;5092643;28;20139;-76
2021/10/26 02:15:53;;;;;;;22.23;19.80;;;13.00;99.90;;;;;;5093194;28;20054;-76
2021/10/26 02:18:18;;;;;;;21.73;19.52;;;12.90;99.90;;;;;;5093192;28;20031;-74
2021/10/26 02:20:44;;;;;;;23.17;20.48;;;12.90;99.90;;;;;;5092756;28;20066;-75
2021/10/26 02:23:09;;;;;;;24.38;20.08;;;12.90;99.90;;;;;;5093090;28;20412;-74
2021/10/26 02:25:35;;;;;;;25.02;22.00;;;12.90;99.90;;;;;;5075245;28;20495;-76
2021/10/26 02:28:00;;;;;;;24.88;22.23;;;12.90;99.90;;;;;;5073730;28;20480;-77
2021/10/26 02:30:26;;;;;;;26.30;20.35;;;12.90;99.90;;;;;;5093090;28;20043;-75
2021/10/26 02:32:52;;;;;;;22.38;19.98;;;12.90;99.90;;;;;;5092901;28;20028;-74
2021/10/26 02:35:17;;;;;;;21.90;19.25;;;12.90;99.90;;;;;;5092204;28;20574;-74
2021/10/26 02:37:43;;;;;;;23.75;21.25;;;12.90;99.90;;;;;;5075141;28;20028;-76
2021/10/26 02:40:09;;;;;;;23.05;20.40;;;12.90;99.90;;;;;;5088940;28;20091;-74
2021/10/26 02:42:35;;;;;;;23.88;19.42;;;12.90;99.90;;;;;;5093298;28;20024;-74
2021/10/26 02:45:02;;;;;;;22.23;19.98;;;13.00;99.90;;;;;;5093161;28;20077;-75
2021/10/26 02:47:27;;;;;;;23.40;19.70;;;12.90;99.90;;;;;;5074089;28;20396;-74
2021/10/26 02:49:53;;;;;;;21.48;18.92;;;13.00;99.90;;;;;;5074658;28;20020;-74
2021/10/26 02:52:19;;;;;;;27.85;19.90;;;13.00;99.90;;;;;;5092702;28;20054;-76
2021/10/26 02:54:45;;;;;;;22.50;20.13;;;13.00;99.90;;;;;;5074177;28;20020;-75
2021/10/26 02:57:10;;;;;;;21.38;18.77;;;13.00;99.90;;;;;;5074642;28;20097;-75
2021/10/26 02:59:36;;;;;;;22.05;19.70;;;13.00;99.90;;;;;;5092605;28;20070;-75
2021/10/26 03:02:02;;;;;;;23.73;20.23;;;12.90;99.90;;;;;;5073653;28;20030;-74
2021/10/26 03:04:28;;;;;;;21.10;18.90;;;13.00;99.90;;;;;;5074912;28;20066;-76
2021/10/26 03:06:53;;;;;;;22.25;19.70;;;13.00;99.90;;;;;;5074789;28;20036;-76
2021/10/26 03:09:19;;;;;;;20.98;18.77;;;13.00;99.90;;;;;;5091946;28;20030;-76
2021/10/26 03:11:44;;;;;;;23.05;18.92;;;13.00;99.90;;;;;;5092771;28;20012;-75
2021/10/26 03:14:10;;;;;;;23.55;20.02;;;13.00;99.90;;;;;;5091736;28;20012;-76
2021/10/26 03:16:36;;;;;;;23.95;20.00;;;13.00;99.90;;;;;;5092489;28;20035;-77
2021/10/26 03:19:05;;;;;;;24.08;18.92;;;13.00;99.90;;;;;;5092196;28;20020;-77
2021/10/26 03:21:33;;;;;;;22.23;19.90;;;13.00;99.90;;;;;;5074222;28;20438;-77
2021/10/26 03:23:58;;;;;;;22.38;19.42;;;13.00;99.90;;;;;;5092284;28;20065;-78
2021/10/26 03:26:24;;;;;;;22.15;19.75;;;13.00;99.90;;;;;;5074481;28;20118;-78
2021/10/26 03:28:50;;;;;;;22.65;20.08;;;13.00;99.90;;;;;;5073582;28;20190;-78
2021/10/26 03:31:16;;;;;;;24.35;19.90;;;13.00;99.90;;;;;;5092192;28;20028;-77
2021/10/26 03:33:41;;;;;;;25.23;20.38;;;13.00;99.90;;;;;;5074222;28;20434;-77
2021/10/26 03:36:07;;;;;;;27.35;22.58;;;12.90;99.90;;;;;;5091573;28;20024;-76
2021/10/26 03:38:35;;;;;;;25.20;20.55;;;12.90;99.90;;;;;;5092395;28;20028;-78
2021/10/26 03:41:01;;;;;;;25.25;22.27;;;12.90;99.90;;;;;;5074252;28;20123;-74
2021/10/26 03:43:27;;;;;;;24.02;21.13;;;12.90;99.90;;;;;;5075549;28;20499;-74
2021/10/26 03:45:52;;;;;;;24.20;20.50;;;12.90;99.90;;;;;;5096450;28;20024;-78
2021/10/26 03:48:19;;;;;;;26.40;23.50;;;12.90;99.90;;;;;;5095996;28;20035;-77
2021/10/26 03:50:45;;;;;;;23.67;21.20;;;12.90;99.90;;;;;;5095752;28;20027;-73
2021/10/26 03:53:11;;;;;;;25.48;22.13;;;12.80;99.90;;;;;;5077794;28;20407;-73
2021/10/26 03:55:36;;;;;;;25.25;22.55;;;12.90;99.90;;;;;;5078267;28;20439;-73
2021/10/26 03:58:06;;;;;;;24.08;21.17;;;12.80;99.90;;;;;;5095257;28;20023;-73
2021/10/26 04:00:32;;;;;;;28.08;24.17;;;12.90;99.90;;;;;;5077900;28;20471;-73
2021/10/26 04:02:58;;;;;;;25.67;22.85;;;12.90;99.90;;;;;;5095580;28;20021;-75
2021/10/26 04:05:37;;;;;;;26.45;22.25;;;12.90;99.90;;;;;;5095645;28;20020;-74
2021/10/26 04:08:18;;;;;;;28.63;24.38;;;12.80;99.90;;;;;;5095799;28;20031;-73
2021/10/26 04:10:50;;;;;;;27.35;23.92;;;12.80;99.90;;;;;;5077357;28;20147;-73
2021/10/26 04:13:15;;;;;;;26.98;24.15;;;12.80;99.90;;;;;;5095500;28;20503;-75
2021/10/26 04:15:41;;;;;;;26.10;23.48;;;12.80;99.90;;;;;;5095926;28;20016;-74
2021/10/26 04:18:07;;;;;;;26.73;23.90;;;12.80;99.90;;;;;;5076817;28;20024;-74
2021/10/26 04:20:32;;;;;;;27.58;24.15;;;12.80;99.90;;;;;;5077515;28;20468;-75
2021/10/26 04:22:58;;;;;;;26.30;22.52;;;12.80;99.90;;;;;;5095356;28;20020;-75
2021/10/26 04:25:24;;;;;;;27.67;24.23;;;12.80;99.90;;;;;;5094771;28;20024;-74
2021/10/26 04:27:49;;;;;;;24.08;21.42;;;12.80;99.90;;;;;;5077652;28;20388;-74
2021/10/26 04:30:15;;;;;;;27.95;24.60;;;12.80;99.90;;;;;;5095101;28;20048;-74
2021/10/26 04:32:40;;;;;;;29.52;26.33;;;12.70;99.90;;;;;;5094767;28;20039;-76
2021/10/26 04:35:07;;;;;;;28.90;25.67;;;12.70;99.90;;;;;;5095296;28;20082;-76
2021/10/26 04:37:32;;;;;;;27.40;24.50;;;12.70;99.90;;;;;;5095550;28;20026;-76
2021/10/26 04:39:58;;;;;;;26.85;23.05;;;12.70;99.90;;;;;;5094530;28;20024;-76
2021/10/26 04:42:23;;;;;;;34.33;24.50;;;12.70;99.90;;;;;;5095841;28;20117;-76
2021/10/26 04:44:49;;;;;;;29.70;24.45;;;12.70;99.90;;;;;;5095234;28;20495;-76
2021/10/26 04:47:15;;;;;;;32.25;26.60;;;12.70;99.90;;;;;;5075946;28;20056;-77
2021/10/26 04:49:41;;;;;;;30.17;24.40;;;12.70;99.90;;;;;;5095268;28;20464;-75
2021/10/26 04:52:07;;;;;;;31.15;26.17;;;12.60;99.90;;;;;;5095052;28;20036;-75
2021/10/26 04:54:33;;;;;;;29.13;25.40;;;12.60;99.90;;;;;;5094053;28;20020;-75
2021/10/26 04:56:58;;;;;;;25.77;23.00;;;12.60;99.90;;;;;;5076732;28;20032;-74
2021/10/26 04:59:24;;;;;;;24.75;22.10;;;12.60;99.90;;;;;;5094795;28;20026;-75
2021/10/26 05:01:49;;;;;;;27.38;23.45;;;12.70;99.90;;;;;;5075897;28;20028;-76
2021/10/26 05:04:15;;;;;;;24.65;21.02;;;12.70;99.90;;;;;;5076414;28;20016;-75
2021/10/26 05:06:40;;;;;;;31.02;24.52;;;12.70;99.90;;;;;;5076357;28;20117;-75
2021/10/26 05:09:06;;;;;;;30.42;25.55;;;12.70;99.90;;;;;;5076572;28;20019;-75
2021/10/26 05:11:32;;;;;;;29.00;23.83;;;12.60;99.90;;;;;;5094951;28;20024;-77
2021/10/26 05:13:57;;;;;;;28.42;24.67;;;12.60;99.90;;;;;;5093659;28;20089;-76
2021/10/26 05:16:26;;;;;;;25.05;22.17;;;12.60;99.90;;;;;;5094700;28;20026;-76
2021/10/26 05:18:54;;;;;;;35.80;25.75;;;12.50;99.90;;;;;;5076836;28;20032;-75
2021/10/26 05:21:23;;;;;;;30.42;24.98;;;12.50;99.90;;;;;;5093655;28;20015;-77
2021/10/26 05:23:49;;;;;;;27.58;23.13;;;12.50;99.90;;;;;;5076588;28;20024;-77
2021/10/26 05:26:18;;;;;;;28.38;22.08;;;12.50;99.90;;;;;;5094112;28;20028;-76
2021/10/26 05:28:45;;;;;;;32.17;24.88;;;12.50;99.90;;;;;;5075702;28;20063;-74
2021/10/26 05:31:11;;;;;;;31.27;25.50;;;12.50;99.90;;;;;;5094304;28;20110;-76
2021/10/26 05:33:40;;;;;;;27.63;23.10;;;12.50;99.90;;;;;;5076037;28;20032;-76
2021/10/26 05:36:06;;;;;;;30.65;23.75;;;12.50;99.90;;;;;;5075408;28;20107;-77
2021/10/26 05:38:32;;;;;;;25.77;22.98;;;12.50;99.90;;;;;;5076259;28;20077;-75
2021/10/26 05:40:59;;;;;;;27.75;24.45;;;12.50;99.90;;;;;;5093990;28;20027;-75
2021/10/26 05:43:25;;;;;;;34.25;25.92;;;12.60;99.90;;;;;;5075330;28;20028;-76
2021/10/26 05:45:52;;;;;;;27.23;23.58;;;12.50;99.90;;;;;;5075804;28;20016;-77
2021/10/26 05:48:18;;;;;;;26.50;22.85;;;12.50;99.90;;;;;;5093778;28;20379;-76
2021/10/26 05:50:44;;;;;;;24.92;22.33;;;12.50;99.90;;;;;;5093335;28;20468;-76
2021/10/26 05:53:10;;;;;;;28.13;23.33;;;12.60;99.90;;;;;;5075558;28;20032;-77
2021/10/26 05:55:37;;;;;;;26.95;23.00;;;12.60;99.90;;;;;;5075962;28;20405;-77
2021/10/26 05:58:03;;;;;;;29.30;25.30;;;12.60;99.90;;;;;;5074679;28;20445;-76
2021/10/26 06:00:29;;;;;;;31.92;26.58;;;12.60;99.90;;;;;;5093486;28;20112;-77
2021/10/26 06:02:55;;;;;;;32.90;26.30;;;12.50;99.90;;;;;;5080317;28;20027;-75
2021/10/26 06:05:21;;;;;;;37.67;28.92;;;12.50;99.90;;;;;;5074142;28;20476;-76
2021/10/26 06:07:46;;;;;;;35.45;28.08;;;12.50;99.90;;;;;;5093719;28;20081;-75
2021/10/26 06:10:12;;;;;;;31.48;26.10;;;12.40;99.90;;;;;;5089284;28;20358;-76
2021/10/26 06:12:42;;;;;;;28.58;25.50;;;12.40;99.90;;;;;;5090498;28;20039;-75
2021/10/26 06:15:09;;;;;;;31.73;26.07;;;12.40;99.90;;;;;;5054404;28;20437;-75
2021/10/26 06:17:35;;;;;;;31.40;25.58;;;12.40;99.90;;;;;;5055116;28;20112;-75
2021/10/26 06:20:00;;;;;;;33.35;27.95;;;12.50;99.90;;;;;;5054871;28;20107;-74
2021/10/26 06:22:26;;;;;;;32.83;27.55;;;12.40;99.90;;;;;;5074114;28;20491;-74
2021/10/26 06:24:52;;;;;;;32.45;27.50;;;12.40;99.90;;;;;;5054361;28;20025;-74
2021/10/26 06:27:17;;;;;;;37.67;29.13;;;12.40;99.90;;;;;;5073069;28;20046;-76
2021/10/26 06:29:43;;;;;;;34.53;27.70;;;12.40;99.90;;;;;;5072857;28;20041;-76
2021/10/26 06:32:09;;;;;;;38.92;29.35;;;12.40;99.90;;;;;;5055252;28;20557;-76
2021/10/26 06:34:34;;;;;;;37.20;28.17;;;12.40;99.90;;;;;;5054888;28;20074;-75
2021/10/26 06:37:00;;;;;;;34.50;27.30;;;12.40;99.90;;;;;;5054593;28;20024;-75
2021/10/26 06:39:26;;;;;;;35.97;28.15;;;12.40;99.90;;;;;;5055260;28;20025;-77
2021/10/26 06:41:53;;;;;;;39.15;30.10;;;12.40;99.90;;;;;;5072971;28;20472;-74
2021/10/26 06:44:19;;;;;;;36.95;30.17;;;12.40;99.90;;;;;;5072494;28;20020;-75
2021/10/26 06:46:44;;;;;;;37.20;27.67;;;12.40;99.90;;;;;;5067387;28;20399;-77
2021/10/26 06:49:10;;;;;;;38.08;29.88;;;12.40;99.90;;;;;;5067225;28;20028;-78
2021/10/26 06:51:36;;;;;;;39.20;30.50;;;12.40;99.90;;;;;;5086967;28;20184;-77
2021/10/26 06:54:02;;;;;;;35.25;28.27;;;12.40;99.90;;;;;;5054043;28;20063;-77
2021/10/26 06:56:28;;;;;;;34.28;28.52;;;12.40;99.90;;;;;;5071716;28;20427;-76
2021/10/26 06:58:54;;;;;;;34.03;27.65;;;12.40;99.90;;;;;;5072255;28;20075;-83
2021/10/26 07:01:20;;;;;;;39.22;28.67;;;12.40;99.90;;;;;;5054599;28;20020;-79
2021/10/26 07:03:45;;;;;;;32.85;26.48;;;12.40;99.90;;;;;;5074713;28;20028;-79
2021/10/26 07:06:11;;;;;;;36.47;29.00;;;12.50;99.90;;;;;;5074170;28;20024;-80
2021/10/26 07:08:38;;;;;;;33.97;26.70;;;12.50;99.90;;;;;;5073843;28;20028;-82
2021/10/26 07:11:04;;;;;;;35.90;27.90;;;12.50;99.90;;;;;;5074368;28;20020;-78
2021/10/26 07:13:33;;;;;;;36.75;28.27;;;12.50;99.90;;;;;;5055137;28;20024;-77
2021/10/26 07:15:58;;;;;;;30.95;26.10;;;12.50;99.90;;;;;;5066043;28;20029;-85
2021/10/26 07:18:24;;;;;;;31.77;25.98;;;12.50;99.90;;;;;;5038876;28;20487;-77
2021/10/26 07:20:49;;;;;;;30.17;25.42;;;12.50;99.90;;;;;;5069377;28;20495;-80
2021/10/26 07:23:15;;;;;;;30.90;26.20;;;12.50;99.90;;;;;;5075126;28;20025;-76
2021/10/26 07:25:41;;;;;;;35.58;28.17;;;12.50;99.90;;;;;;5076547;28;20036;-82
2021/10/26 07:28:07;;;;;;;34.45;27.05;;;12.50;99.90;;;;;;5075261;28;20064;-81
2021/10/26 07:30:34;;;;;;;32.70;25.63;;;12.50;99.90;;;;;;5077460;28;20061;-78
2021/10/26 07:33:02;;;;;;;35.13;27.17;;;12.50;99.90;;;;;;5075915;28;20023;-76
2021/10/26 07:35:43;;;;;;;31.70;25.45;;;12.60;99.90;;;;;;5075220;28;20028;-80
2021/10/26 07:38:11;;;;;;;31.40;24.73;;;12.60;99.90;;;;;;5076758;28;20020;-77
2021/10/26 07:40:37;;;;;;;35.90;25.88;;;12.60;99.90;;;;;;5078294;28;20484;-78
2021/10/26 07:43:02;;;;;;;35.22;25.40;;;12.60;99.90;;;;;;5077221;28;20024;-79
2021/10/26 07:45:28;;;;;;;36.13;26.20;;;12.60;99.90;;;;;;5078074;28;20468;-79
2021/10/26 07:47:54;;;;;;;34.90;27.42;;;12.60;99.90;;;;;;5085821;28;20041;-78
2021/10/26 07:50:20;;;;;;;37.05;27.83;;;12.70;99.90;;;;;;5060987;28;20032;-78
2021/10/26 07:52:47;;;;;;;34.40;27.00;;;12.70;99.90;;;;;;5075975;28;20028;-78
2021/10/26 07:55:13;;;;;;;34.92;27.58;;;12.70;99.90;;;;;;5075153;28;20388;-73
2021/10/26 07:57:39;;;;;;;33.97;27.02;;;12.70;99.90;;;;;;5076848;28;20095;-83
2021/10/26 08:00:06;;;;;;;36.15;28.08;;;12.80;99.90;;;;;;5056963;28;20098;-81
2021/10/26 08:02:32;;;;;;;33.45;26.88;;;12.80;99.90;;;;;;5093461;28;20384;-80
2021/10/26 08:04:57;;;;;;;35.05;27.00;;;12.80;99.90;;;;;;5095952;28;20034;-79
2021/10/26 08:07:24;;;;;;;35.13;27.20;;;12.80;99.90;;;;;;5095721;28;20084;-77
2021/10/26 08:09:55;;;;;;;39.10;28.30;;;12.90;99.90;;;;;;5095341;28;20824;-77
2021/10/26 08:12:22;;;;;;;34.50;26.17;;;12.90;99.90;;;;;;5065467;28;20032;-74
2021/10/26 08:14:48;;;;;;;35.53;26.00;;;12.90;99.90;;;;;;5092258;28;20032;-75
2021/10/26 08:17:14;;;;;;;40.85;27.10;;;12.90;99.90;;;;;;5093558;28;20416;-77
2021/10/26 08:19:46;;;;;;;32.95;25.63;;;12.90;99.90;;;;;;5095981;28;20035;-75
2021/10/26 15:58:22;;;;;;;9.02;5.35;;;14.10;99.90;;;;;;4871062;29;20053;-73
2021/10/26 16:00:47;;;;;;;8.82;5.78;;;14.10;99.90;;;;;;4872692;29;20037;-75
2021/10/26 16:03:13;;;;;;;8.77;5.85;;;14.10;99.90;;;;;;4872034;29;20028;-79
2021/10/26 16:05:39;;;;;;;7.07;5.07;;;14.00;99.90;;;;;;4881195;29;20108;-78
2021/10/26 16:08:13;;;;;;;6.50;5.82;;;14.00;99.90;;;;;;4881643;29;20111;-74
2021/10/26 16:13:20;;;;;;;8.55;5.32;;;13.90;99.90;;;;;;4879172;29;20318;-80
2021/10/26 16:15:55;;;;;;;8.43;6.10;;;13.80;99.90;;;;;;4880301;29;20553;-81
2021/10/26 16:18:22;;;;;;;10.18;6.78;;;13.80;99.90;;;;;;4880650;29;20028;-82
2021/10/26 16:20:49;;;;;;;8.57;5.97;;;13.80;99.90;;;;;;4877327;29;20060;-78
2021/10/26 16:23:14;;;;;;;9.40;5.80;;;13.80;99.90;;;;;;4878235;29;20427;-81
2021/10/26 16:25:40;;;;;;;8.52;6.03;;;13.80;99.90;;;;;;4876514;29;20033;-79
2021/10/26 16:28:06;;;;;;;7.90;5.60;;;13.80;99.90;;;;;;4875532;29;20048;-73
2021/10/26 16:30:32;;;;;;;8.70;5.05;;;13.80;99.90;;;;;;4874146;29;20393;-72
2021/10/26 16:32:57;;;;;;;8.60;5.43;;;13.80;99.90;;;;;;4858557;29;20033;-73
2021/10/26 16:35:23;;;;;;;7.85;5.47;;;13.90;99.90;;;;;;4859366;29;20041;-74
2021/10/26 16:37:51;;;;;;;8.63;5.57;;;13.90;99.90;;;;;;4859111;29;20033;-75
2021/10/26 16:40:18;;;;;;;7.93;5.57;;;13.90;99.90;;;;;;4858791;29;20021;-77
2021/10/26 16:43:04;;;;;;;7.93;5.65;;;13.90;99.90;;;;;;4874207;29;20509;-78
2021/10/26 16:48:09;;;;;;;9.05;6.72;;;13.90;99.90;;;;;;4876997;29;20072;-84
2021/10/26 16:50:38;;;;;;;7.15;6.45;;;13.90;99.90;;;;;;4875907;29;20033;-81
2021/10/26 16:53:05;;;;;;;9.10;6.38;;;13.90;99.90;;;;;;4875708;29;20180;-81
2021/10/26 16:55:32;;;;;;;6.97;5.35;;;13.90;99.90;;;;;;4874382;29;20056;-78
2021/10/26 16:58:07;;;;;;;11.15;6.20;;;13.80;99.90;;;;;;4873478;29;20068;-78
2021/10/26 17:00:35;;;;;;;10.32;7.18;;;13.90;99.90;;;;;;4873638;29;20035;-78
2021/10/26 17:03:10;;;;;;;10.13;6.00;;;13.80;99.90;;;;;;4876217;29;20055;-79
2021/10/26 17:05:37;;;;;;;10.50;6.75;;;13.80;99.90;;;;;;4877428;29;20025;-78
2021/10/26 17:08:05;;;;;;;11.90;6.85;;;13.80;99.90;;;;;;4876346;29;20036;-79
2021/10/26 17:10:34;;;;;;;14.32;7.15;;;13.70;99.90;;;;;;4868311;29;20044;-79
2021/10/26 17:13:00;;;;;;;11.77;6.53;;;13.80;99.90;;;;;;4876199;29;20021;-78
2021/10/26 17:15:26;;;;;;;8.68;5.53;;;13.70;99.90;;;;;;4876789;29;20031;-74
2021/10/26 17:17:52;;;;;;;8.60;5.82;;;13.80;99.90;;;;;;4876082;29;20025;-77
2021/10/26 17:20:19;;;;;;;8.40;6.07;;;13.80;99.90;;;;;;4861525;29;20116;-76
2021/10/26 17:22:46;;;;;;;8.60;6.35;;;13.80;99.90;;;;;;4875816;29;20116;-84
2021/10/26 17:25:12;;;;;;;9.52;6.45;;;13.80;99.90;;;;;;4876151;29;20036;-82
2021/10/26 17:27:38;;;;;;;8.70;5.97;;;13.80;99.90;;;;;;4877162;29;20029;-74
2021/10/26 17:30:05;;;;;;;9.60;5.90;;;13.80;99.90;;;;;;4876804;29;20025;-76
2021/10/26 17:32:33;;;;;;;8.27;5.72;;;13.80;99.90;;;;;;4873864;29;20490;-76
2021/10/26 17:35:00;;;;;;;12.43;6.60;;;13.80;99.90;;;;;;4863325;29;20035;-84
2021/10/26 17:37:25;;;;;;;7.45;4.95;;;13.80;99.90;;;;;;4870766;29;20029;-76
2021/10/26 17:39:51;;;;;;;8.30;5.47;;;13.80;99.90;;;;;;4875063;29;20055;-82
2021/10/26 17:42:17;;;;;;;9.02;5.65;;;13.80;99.90;;;;;;4871055;29;20083;-83
2021/10/26 17:44:43;;;;;;;11.68;5.32;;;13.80;99.90;;;;;;4862438;29;20379;-85
2021/10/26 17:47:09;;;;;;;9.73;5.50;;;13.80;99.90;;;;;;4866518;29;20041;-78
2021/10/26 17:49:34;;;;;;;9.07;5.32;;;13.80;99.90;;;;;;4873599;29;20036;-77
2021/10/26 17:52:00;;;;;;;10.35;5.28;;;13.80;99.90;;;;;;4873885;29;20521;-85
2021/10/26 17:54:25;;;;;;;8.77;4.88;;;13.80;99.90;;;;;;4876557;29;20052;-73
2021/10/26 17:56:51;;;;;;;7.82;4.97;;;13.80;99.90;;;;;;4874813;29;20382;-74
2021/10/26 17:59:16;;;;;;;14.57;5.55;;;13.80;99.90;;;;;;4871793;29;20053;-82
2021/10/26 18:01:42;;;;;;;9.60;5.57;;;13.80;99.90;;;;;;4867618;29;20108;-87
2021/10/26 18:04:08;;;;;;;9.85;5.22;;;13.80;99.90;;;;;;4855955;29;20038;-77
2021/10/26 18:06:35;;;;;;;8.52;4.70;;;13.80;99.90;;;;;;4868712;29;20060;-79
2021/10/26 18:09:08;;;;;;;8.30;5.13;;;13.80;99.90;;;;;;4876123;29;20041;-78
2021/10/26 18:11:43;;;;;;;9.32;5.00;;;13.80;99.90;;;;;;4874705;29;20385;-78
2021/10/26 18:14:10;;;;;;;8.95;4.80;;;13.80;99.90;;;;;;4875938;29;20068;-77
2021/10/26 18:16:36;;;;;;;11.52;4.97;;;13.80;99.90;;;;;;4873544;29;20033;-78
2021/10/26 18:19:02;;;;;;;8.15;5.07;;;13.80;99.90;;;;;;4868329;29;20109;-82
2021/10/26 18:21:28;;;;;;;13.60;5.82;;;13.70;99.90;;;;;;4874838;29;20025;-80
2021/10/26 18:23:54;;;;;;;10.07;4.68;;;13.80;99.90;;;;;;4873929;29;20037;-77
2021/10/26 18:26:21;;;;;;;10.52;5.22;;;13.80;99.90;;;;;;4875373;29;20029;-80
2021/10/26 18:28:52;;;;;;;12.48;5.57;;;13.80;99.90;;;;;;4876070;29;20060;-77
2021/10/26 18:31:24;;;;;;;8.80;4.13;;;13.80;99.90;;;;;;4875705;29;20389;-82
2021/10/26 18:33:50;;;;;;;12.55;4.93;;;13.80;99.90;;;;;;4874750;29;20120;-78
2021/10/26 18:36:16;;;;;;;10.77;4.85;;;13.80;99.90;;;;;;4861499;29;20100;-79
2021/10/26 18:38:43;;;;;;;9.93;5.10;;;13.80;99.90;;;;;;4875295;29;20104;-76
2021/10/26 18:41:15;;;;;;;12.02;5.88;;;13.80;99.90;;;;;;4874769;29;20120;-79
2021/10/26 18:43:45;;;;;;;;;;;13.80;99.90;;;;;;4872641;29;20040;-81
2021/10/26 18:46:15;;;;;;;13.57;4.75;;;13.80;99.90;;;;;;4874147;29;20357;-77
2021/10/26 18:48:43;;;;;;;9.68;5.28;;;13.80;99.90;;;;;;4874201;29;20154;-79
2021/10/26 18:51:09;;;;;;;6.85;4.40;;;13.80;99.90;;;;;;4875561;29;20383;-78
2021/10/26 18:53:36;;;;;;;9.95;4.45;;;13.80;99.90;;;;;;4873864;29;20037;-77
2021/10/26 18:56:05;;;;;;;9.82;4.65;;;13.80;99.90;;;;;;4875442;29;20032;-80
2021/10/26 18:58:34;;;;;;;10.18;4.70;;;13.80;99.90;;;;;;4875690;29;20048;-79
2021/10/26 19:01:00;;;;;;;11.02;4.88;;;13.80;99.90;;;;;;4873510;29;20029;-80
2021/10/26 19:03:26;;;;;;;7.47;4.78;;;13.80;99.90;;;;;;4875393;29;20039;-74
2021/10/26 19:05:52;;;;;;;8.45;4.63;;;13.80;99.90;;;;;;4874509;29;20123;-77
2021/10/26 19:08:20;;;;;;;9.15;4.50;;;13.80;99.90;;;;;;4869048;29;20184;-75
2021/10/26 19:10:46;;;;;;;8.10;4.55;;;13.80;99.90;;;;;;4867191;29;20025;-76
2021/10/26 19:13:12;;;;;;;9.52;4.72;;;13.80;99.90;;;;;;4856573;29;20422;-78
2021/10/26 19:15:37;;;;;;;8.90;4.78;;;13.80;99.90;;;;;;4856356;29;20085;-75
2021/10/26 19:18:04;;;;;;;6.15;4.55;;;13.80;99.90;;;;;;4870930;29;20037;-83
2021/10/26 19:20:29;;;;;;;9.07;4.32;;;13.80;99.90;;;;;;4870404;29;20041;-78
2021/10/26 19:22:56;;;;;;;6.45;4.32;;;13.80;99.90;;;;;;4875070;29;20029;-76
2021/10/26 19:25:24;;;;;;;8.55;4.60;;;13.80;99.90;;;;;;4874116;29;20128;-74
2021/10/26 19:27:53;;;;;;;8.07;5.05;;;13.80;99.90;;;;;;4874561;29;20037;-74
2021/10/26 19:30:19;;;;;;;11.23;5.22;;;13.80;99.90;;;;;;4874296;29;20037;-73
2021/10/26 19:32:45;;;;;;;12.65;4.97;;;13.80;99.90;;;;;;4874050;29;20040;-75
2021/10/26 19:35:11;;;;;;;9.48;5.60;;;13.80;99.90;;;;;;4874379;29;20021;-76
2021/10/26 19:37:38;;;;;;;9.00;4.88;;;13.80;99.90;;;;;;4874890;29;20501;-74
2021/10/26 19:40:05;;;;;;;9.27;6.10;;;13.80;99.90;;;;;;4875272;29;20110;-73
2021/10/26 19:42:31;;;;;;;9.88;5.95;;;13.80;99.90;;;;;;4873599;29;20026;-74
2021/10/26 19:44:56;;;;;;;9.20;5.93;;;13.80;99.90;;;;;;4874777;29;20036;-74
2021/10/26 19:47:22;;;;;;;8.57;5.13;;;13.80;99.90;;;;;;4874969;29;20045;-74
2021/10/26 19:49:50;;;;;;;9.50;5.80;;;13.80;99.90;;;;;;4874505;29;20033;-75
2021/10/26 19:52:16;;;;;;;7.88;4.78;;;13.80;99.90;;;;;;4874156;29;20037;-74
2021/10/26 19:54:41;;;;;;;11.73;5.63;;;13.80;99.90;;;;;;4873906;29;20029;-74
2021/10/26 19:57:07;;;;;;;9.88;6.68;;;13.80;99.90;;;;;;4871272;29;20044;-77
2021/10/26 19:59:32;;;;;;;8.93;5.68;;;13.80;99.90;;;;;;4873963;29;20033;-74
2021/10/26 20:01:58;;;;;;;7.57;5.45;;;13.80;99.90;;;;;;4872953;29;20106;-74
2021/10/26 20:04:24;;;;;;;9.68;5.65;;;13.80;99.90;;;;;;4873265;29;20120;-74
2021/10/26 20:06:51;;;;;;;8.82;5.80;;;13.80;99.90;;;;;;4873689;29;20033;-79
2021/10/26 20:09:17;;;;;;;9.95;6.30;;;13.80;99.90;;;;;;4871433;29;20041;-74
2021/10/26 20:11:49;;;;;;;10.15;6.20;;;13.80;99.90;;;;;;4870514;29;20036;-74